EGV45P EDDF-EGCC
Flight info
| Callsign | EGV45P |
|---|---|
| Flight time | 1h 21m |
| Altitude | 34000 |
| Route | OBOKA2E OBOKA Z29 TORNU DCT GALSO Q63 ERING L179 LAM UN57 WELIN T420 ELVOS |
| Aircraft | A35K/H-SDE2E3GHIJ3J4J5LM1ORWXY/LB1D1 |
Departure
| Time | 2026-04-18 04:45 |
|---|---|
| Airport | Frankfurt Main Airport (EDDF) |
Arrival
| Time | 2026-04-18 06:06 |
|---|---|
| Airport | Manchester Airport (EGCC) |
| Time | Latitude | Longitude | Altitude | Speed | Heading |
|---|---|---|---|---|---|
| 2026-04-18 04:14 | 50.04799 | 8.56926 | 362 ft | 0 kts | 294° |
| 2026-04-18 04:32 | 50.04795 | 8.56939 | 366 ft | 4 kts | 289° |
| 2026-04-18 04:32 | 50.04790 | 8.56976 | 365 ft | 4 kts | 267° |
| 2026-04-18 04:32 | 50.04791 | 8.57000 | 367 ft | 4 kts | 250° |
| 2026-04-18 04:33 | 50.04802 | 8.57032 | 369 ft | 4 kts | 224° |
| 2026-04-18 04:33 | 50.04820 | 8.57053 | 368 ft | 2 kts | 205° |
| 2026-04-18 04:33 | 50.04821 | 8.57054 | 368 ft | 0 kts | 205° |
| 2026-04-18 04:37 | 50.04811 | 8.57047 | 368 ft | 6 kts | 205° |
| 2026-04-18 04:38 | 50.04731 | 8.56990 | 368 ft | 17 kts | 205° |
| 2026-04-18 04:38 | 50.04609 | 8.56914 | 367 ft | 20 kts | 195° |
| 2026-04-18 04:38 | 50.04468 | 8.56861 | 367 ft | 22 kts | 192° |
| 2026-04-18 04:38 | 50.04306 | 8.56817 | 370 ft | 25 kts | 194° |
| 2026-04-18 04:39 | 50.04204 | 8.56607 | 365 ft | 27 kts | 251° |
| 2026-04-18 04:39 | 50.04135 | 8.56314 | 361 ft | 31 kts | 250° |
| 2026-04-18 04:39 | 50.04058 | 8.55990 | 361 ft | 33 kts | 249° |
| 2026-04-18 04:39 | 50.03975 | 8.55645 | 362 ft | 34 kts | 249° |
| 2026-04-18 04:40 | 50.03890 | 8.55291 | 363 ft | 36 kts | 249° |
| 2026-04-18 04:40 | 50.03802 | 8.54919 | 361 ft | 38 kts | 250° |
| 2026-04-18 04:40 | 50.03708 | 8.54525 | 352 ft | 37 kts | 251° |
| 2026-04-18 04:40 | 50.03629 | 8.54194 | 356 ft | 33 kts | 248° |
| 2026-04-18 04:41 | 50.03545 | 8.53845 | 355 ft | 36 kts | 250° |
| 2026-04-18 04:41 | 50.03455 | 8.53469 | 351 ft | 38 kts | 250° |
| 2026-04-18 04:41 | 50.03408 | 8.53273 | 349 ft | 0 kts | 249° |
| 2026-04-18 04:41 | 50.03401 | 8.53262 | 354 ft | 2 kts | 216° |
| 2026-04-18 04:42 | 50.03387 | 8.53271 | 349 ft | 7 kts | 151° |
| 2026-04-18 04:42 | 50.03341 | 8.53357 | 345 ft | 0 kts | 124° |
| 2026-04-18 04:44 | 50.03341 | 8.53359 | 345 ft | 1 kts | 124° |
| 2026-04-18 04:44 | 50.03319 | 8.53409 | 352 ft | 13 kts | 124° |
| 2026-04-18 04:44 | 50.03287 | 8.53547 | 348 ft | 15 kts | 85° |
| 2026-04-18 04:44 | 50.03352 | 8.53841 | 355 ft | 60 kts | 71° |
| 2026-04-18 04:45 | 50.03600 | 8.54875 | 358 ft | 141 kts | 69° |
| 2026-04-18 04:45 | 50.04013 | 8.56623 | 586 ft | 189 kts | 69° |
| 2026-04-18 04:45 | 50.04460 | 8.58504 | 1688 ft | 185 kts | 69° |
| 2026-04-18 04:45 | 50.04946 | 8.60425 | 2488 ft | 197 kts | 69° |
| 2026-04-18 04:46 | 50.05590 | 8.62393 | 2985 ft | 213 kts | 52° |
| 2026-04-18 04:46 | 50.06843 | 8.63610 | 3712 ft | 220 kts | 12° |
| 2026-04-18 04:46 | 50.08377 | 8.63722 | 4554 ft | 221 kts | 357° |
| 2026-04-18 04:46 | 50.09924 | 8.63578 | 5383 ft | 224 kts | 355° |
| 2026-04-18 04:47 | 50.11512 | 8.63420 | 6000 ft | 238 kts | 355° |
| 2026-04-18 04:47 | 50.13222 | 8.63272 | 6460 ft | 258 kts | 356° |
| 2026-04-18 04:47 | 50.15052 | 8.63133 | 7133 ft | 267 kts | 356° |
| 2026-04-18 04:47 | 50.16926 | 8.63001 | 7923 ft | 272 kts | 356° |
| 2026-04-18 04:48 | 50.18831 | 8.62870 | 8749 ft | 276 kts | 356° |
| 2026-04-18 04:48 | 50.20758 | 8.62740 | 9597 ft | 279 kts | 356° |
| 2026-04-18 04:48 | 50.22714 | 8.62608 | 10414 ft | 283 kts | 356° |
| 2026-04-18 04:48 | 50.24742 | 8.62471 | 10857 ft | 301 kts | 356° |
| 2026-04-18 04:49 | 50.26896 | 8.62323 | 11237 ft | 318 kts | 356° |
| 2026-04-18 04:49 | 50.29126 | 8.62081 | 11571 ft | 333 kts | 350° |
| 2026-04-18 04:49 | 50.31340 | 8.60933 | 12046 ft | 340 kts | 329° |
| 2026-04-18 04:49 | 50.33120 | 8.58523 | 12692 ft | 342 kts | 307° |
| 2026-04-18 04:50 | 50.34219 | 8.55230 | 13380 ft | 344 kts | 291° |
| 2026-04-18 04:50 | 50.34999 | 8.51666 | 14026 ft | 348 kts | 288° |
| 2026-04-18 04:50 | 50.35749 | 8.48038 | 14600 ft | 351 kts | 288° |
| 2026-04-18 04:50 | 50.36510 | 8.44396 | 15191 ft | 355 kts | 288° |
| 2026-04-18 04:51 | 50.37274 | 8.40701 | 15777 ft | 358 kts | 287° |
| 2026-04-18 04:51 | 50.37709 | 8.36855 | 16350 ft | 362 kts | 273° |
| 2026-04-18 04:51 | 50.37457 | 8.32912 | 16963 ft | 367 kts | 258° |
| 2026-04-18 04:51 | 50.36753 | 8.29102 | 17578 ft | 371 kts | 254° |
| 2026-04-18 04:52 | 50.35949 | 8.25198 | 18159 ft | 374 kts | 253° |
| 2026-04-18 04:52 | 50.35155 | 8.21351 | 18702 ft | 377 kts | 254° |
| 2026-04-18 04:52 | 50.34353 | 8.17422 | 19203 ft | 380 kts | 254° |
| 2026-04-18 04:52 | 50.33551 | 8.13468 | 19712 ft | 383 kts | 254° |
| 2026-04-18 04:53 | 50.32745 | 8.09479 | 20220 ft | 385 kts | 254° |
| 2026-04-18 04:53 | 50.31933 | 8.05463 | 20749 ft | 388 kts | 254° |
| 2026-04-18 04:53 | 50.31118 | 8.01425 | 21247 ft | 390 kts | 255° |
| 2026-04-18 04:53 | 50.30325 | 7.97358 | 21768 ft | 392 kts | 257° |
| 2026-04-18 04:54 | 50.29880 | 7.93216 | 22247 ft | 392 kts | 268° |
| 2026-04-18 04:54 | 50.30030 | 7.88980 | 22735 ft | 392 kts | 281° |
| 2026-04-18 04:54 | 50.30801 | 7.84884 | 23268 ft | 393 kts | 292° |
| 2026-04-18 04:54 | 50.31901 | 7.80972 | 23764 ft | 395 kts | 295° |
| 2026-04-18 04:55 | 50.33064 | 7.77057 | 24171 ft | 398 kts | 295° |
| 2026-04-18 04:55 | 50.34276 | 7.73148 | 24582 ft | 400 kts | 298° |
| 2026-04-18 04:55 | 50.35809 | 7.69495 | 25002 ft | 404 kts | 308° |
| 2026-04-18 04:56 | 50.40093 | 7.63850 | 25876 ft | 413 kts | 329° |
| 2026-04-18 04:56 | 50.42693 | 7.61897 | 26356 ft | 417 kts | 334° |
| 2026-04-18 04:56 | 50.45371 | 7.60077 | 26835 ft | 420 kts | 334° |
| 2026-04-18 04:56 | 50.48064 | 7.58259 | 27342 ft | 423 kts | 334° |
| 2026-04-18 04:57 | 50.50766 | 7.56420 | 27886 ft | 426 kts | 334° |
| 2026-04-18 04:57 | 50.53498 | 7.54547 | 28438 ft | 429 kts | 334° |
| 2026-04-18 04:57 | 50.56177 | 7.52482 | 28969 ft | 431 kts | 328° |
| 2026-04-18 04:57 | 50.58742 | 7.50005 | 29546 ft | 433 kts | 325° |
| 2026-04-18 04:58 | 50.61279 | 7.47416 | 30143 ft | 436 kts | 324° |
| 2026-04-18 04:58 | 50.63790 | 7.44832 | 30639 ft | 440 kts | 324° |
| 2026-04-18 04:58 | 50.66363 | 7.42184 | 31159 ft | 442 kts | 324° |
| 2026-04-18 04:58 | 50.68943 | 7.39530 | 31683 ft | 445 kts | 324° |
| 2026-04-18 04:59 | 50.71486 | 7.36732 | 32193 ft | 446 kts | 320° |
| 2026-04-18 04:59 | 50.73779 | 7.33450 | 32669 ft | 446 kts | 311° |
| 2026-04-18 04:59 | 50.75718 | 7.29635 | 33147 ft | 446 kts | 303° |
| 2026-04-18 04:59 | 50.77305 | 7.25416 | 33613 ft | 448 kts | 298° |
| 2026-04-18 05:00 | 50.78775 | 7.21072 | 34058 ft | 450 kts | 297° |
| 2026-04-18 05:00 | 50.80199 | 7.16674 | 34206 ft | 448 kts | 296° |
| 2026-04-18 05:00 | 50.82955 | 7.07975 | 34206 ft | 444 kts | 296° |
| 2026-04-18 05:01 | 50.85730 | 6.99259 | 34208 ft | 443 kts | 296° |
| 2026-04-18 05:01 | 50.88527 | 6.90565 | 34217 ft | 444 kts | 296° |
| 2026-04-18 05:02 | 50.91328 | 6.81844 | 34214 ft | 444 kts | 296° |
| 2026-04-18 05:02 | 50.94117 | 6.73129 | 34211 ft | 444 kts | 296° |
| 2026-04-18 05:03 | 50.96885 | 6.64447 | 34209 ft | 444 kts | 296° |
| 2026-04-18 05:03 | 50.99662 | 6.55708 | 34214 ft | 444 kts | 295° |
| 2026-04-18 05:04 | 51.02437 | 6.46949 | 34198 ft | 444 kts | 295° |
| 2026-04-18 05:04 | 51.05202 | 6.38185 | 34197 ft | 443 kts | 295° |
| 2026-04-18 05:05 | 51.07938 | 6.29482 | 34195 ft | 443 kts | 295° |
| 2026-04-18 05:05 | 51.10690 | 6.20697 | 34190 ft | 443 kts | 295° |
| 2026-04-18 05:06 | 51.13383 | 6.11873 | 34189 ft | 443 kts | 291° |
| 2026-04-18 05:06 | 51.15265 | 6.02540 | 34191 ft | 442 kts | 285° |
| 2026-04-18 05:07 | 51.16826 | 5.93058 | 34188 ft | 442 kts | 283° |
| 2026-04-18 05:07 | 51.18317 | 5.83619 | 34192 ft | 443 kts | 283° |
| 2026-04-18 05:08 | 51.20099 | 5.74223 | 34195 ft | 443 kts | 288° |
| 2026-04-18 05:08 | 51.22220 | 5.64993 | 34190 ft | 444 kts | 289° |
| 2026-04-18 05:09 | 51.24351 | 5.55738 | 34191 ft | 444 kts | 288° |
| 2026-04-18 05:09 | 51.26409 | 5.46436 | 34194 ft | 444 kts | 288° |
| 2026-04-18 05:10 | 51.28411 | 5.37169 | 34190 ft | 444 kts | 288° |
| 2026-04-18 05:10 | 51.30411 | 5.27837 | 34191 ft | 445 kts | 288° |
| 2026-04-18 05:11 | 51.32413 | 5.18468 | 34192 ft | 445 kts | 288° |
| 2026-04-18 05:11 | 51.34406 | 5.09108 | 34194 ft | 445 kts | 288° |
| 2026-04-18 05:12 | 51.36381 | 4.99793 | 34198 ft | 445 kts | 287° |
| 2026-04-18 05:12 | 51.38364 | 4.90398 | 34204 ft | 446 kts | 287° |
| 2026-04-18 05:13 | 51.40349 | 4.80990 | 34206 ft | 446 kts | 287° |
| 2026-04-18 05:13 | 51.42318 | 4.71571 | 34192 ft | 446 kts | 287° |
| 2026-04-18 05:14 | 51.44260 | 4.62205 | 34195 ft | 446 kts | 287° |
| 2026-04-18 05:14 | 51.46206 | 4.52798 | 34186 ft | 443 kts | 287° |
| 2026-04-18 05:15 | 51.48145 | 4.43403 | 34185 ft | 445 kts | 287° |
| 2026-04-18 05:15 | 51.50081 | 4.33971 | 34185 ft | 445 kts | 287° |
| 2026-04-18 05:16 | 51.51992 | 4.24617 | 34183 ft | 444 kts | 287° |
| 2026-04-18 05:16 | 51.53907 | 4.15197 | 34191 ft | 444 kts | 286° |
| 2026-04-18 05:17 | 51.55816 | 4.05760 | 34186 ft | 444 kts | 286° |
| 2026-04-18 05:17 | 51.57722 | 3.96295 | 34185 ft | 444 kts | 286° |
| 2026-04-18 05:18 | 51.59600 | 3.86924 | 34190 ft | 444 kts | 286° |
| 2026-04-18 05:18 | 51.61488 | 3.77456 | 34177 ft | 444 kts | 285° |
| 2026-04-18 05:19 | 51.63362 | 3.68008 | 34183 ft | 444 kts | 285° |
| 2026-04-18 05:19 | 51.65231 | 3.58544 | 34188 ft | 443 kts | 285° |
| 2026-04-18 05:20 | 51.67079 | 3.49134 | 34189 ft | 443 kts | 285° |
| 2026-04-18 05:20 | 51.68929 | 3.39673 | 34191 ft | 443 kts | 285° |
| 2026-04-18 05:21 | 51.70772 | 3.30201 | 34188 ft | 443 kts | 284° |
| 2026-04-18 05:21 | 51.72428 | 3.20663 | 34189 ft | 440 kts | 278° |
| 2026-04-18 05:22 | 51.72727 | 3.10889 | 34187 ft | 437 kts | 264° |
| 2026-04-18 05:22 | 51.72013 | 3.01258 | 34187 ft | 436 kts | 261° |
| 2026-04-18 05:23 | 51.71121 | 2.91568 | 34181 ft | 435 kts | 261° |
| 2026-04-18 05:23 | 51.70229 | 2.81924 | 34190 ft | 435 kts | 261° |
| 2026-04-18 05:24 | 51.69362 | 2.72285 | 34183 ft | 434 kts | 261° |
| 2026-04-18 05:24 | 51.68510 | 2.62733 | 34189 ft | 434 kts | 261° |
| 2026-04-18 05:25 | 51.67650 | 2.53116 | 34184 ft | 433 kts | 261° |
| 2026-04-18 05:25 | 51.66783 | 2.43514 | 34187 ft | 433 kts | 261° |
| 2026-04-18 05:26 | 51.65901 | 2.33931 | 34183 ft | 432 kts | 260° |
| 2026-04-18 05:26 | 51.65016 | 2.24430 | 34186 ft | 432 kts | 260° |
| 2026-04-18 05:27 | 51.64120 | 2.14874 | 34186 ft | 431 kts | 260° |
| 2026-04-18 05:27 | 51.63229 | 2.05338 | 34189 ft | 431 kts | 260° |
| 2026-04-18 05:28 | 51.62348 | 1.95804 | 34188 ft | 430 kts | 260° |
| 2026-04-18 05:28 | 51.61469 | 1.86346 | 34193 ft | 430 kts | 260° |
| 2026-04-18 05:29 | 51.60576 | 1.76838 | 34189 ft | 430 kts | 260° |
| 2026-04-18 05:29 | 51.59669 | 1.67349 | 34187 ft | 430 kts | 259° |
| 2026-04-18 05:30 | 51.59255 | 1.57748 | 34188 ft | 432 kts | 269° |
| 2026-04-18 05:30 | 51.59573 | 1.48158 | 34205 ft | 433 kts | 271° |
| 2026-04-18 05:31 | 51.60016 | 1.38519 | 34200 ft | 433 kts | 271° |
| 2026-04-18 05:31 | 51.60452 | 1.28864 | 34204 ft | 433 kts | 271° |
| 2026-04-18 05:32 | 51.60863 | 1.19207 | 34197 ft | 432 kts | 270° |
| 2026-04-18 05:32 | 51.61247 | 1.09565 | 34198 ft | 432 kts | 270° |
| 2026-04-18 05:33 | 51.61621 | 0.99981 | 34189 ft | 432 kts | 270° |
| 2026-04-18 05:33 | 51.61991 | 0.90335 | 34191 ft | 432 kts | 270° |
| 2026-04-18 05:34 | 51.62359 | 0.80690 | 34189 ft | 431 kts | 270° |
| 2026-04-18 05:34 | 51.62714 | 0.71069 | 34188 ft | 431 kts | 270° |
| 2026-04-18 05:35 | 51.63062 | 0.61514 | 34183 ft | 431 kts | 270° |
| 2026-04-18 05:35 | 51.63402 | 0.51858 | 34191 ft | 431 kts | 270° |
| 2026-04-18 05:36 | 51.63727 | 0.42237 | 34191 ft | 431 kts | 270° |
| 2026-04-18 05:36 | 51.64046 | 0.32611 | 34215 ft | 431 kts | 270° |
| 2026-04-18 05:37 | 51.64606 | 0.23062 | 34212 ft | 435 kts | 277° |
| 2026-04-18 05:37 | 51.66590 | 0.13805 | 34219 ft | 445 kts | 292° |
| 2026-04-18 05:38 | 51.70304 | 0.05635 | 34215 ft | 458 kts | 306° |
| 2026-04-18 05:38 | 51.74767 | -0.01751 | 34246 ft | 462 kts | 308° |
| 2026-04-18 05:39 | 51.79347 | -0.09111 | 34145 ft | 466 kts | 308° |
| 2026-04-18 05:39 | 51.83873 | -0.16523 | 34193 ft | 466 kts | 307° |
| 2026-04-18 05:40 | 51.88404 | -0.24041 | 34187 ft | 466 kts | 307° |
| 2026-04-18 05:40 | 51.92921 | -0.31575 | 34185 ft | 466 kts | 307° |
| 2026-04-18 05:41 | 51.97439 | -0.39126 | 34187 ft | 466 kts | 307° |
| 2026-04-18 05:41 | 52.01947 | -0.46678 | 34190 ft | 466 kts | 307° |
| 2026-04-18 05:42 | 52.06431 | -0.54212 | 34187 ft | 466 kts | 307° |
| 2026-04-18 05:42 | 52.10936 | -0.61805 | 34186 ft | 467 kts | 307° |
| 2026-04-18 05:43 | 52.15433 | -0.69409 | 34186 ft | 467 kts | 307° |
| 2026-04-18 05:43 | 52.19918 | -0.77007 | 33624 ft | 461 kts | 307° |
| 2026-04-18 05:44 | 52.22146 | -0.80788 | 32506 ft | 465 kts | 307° |
| 2026-04-18 05:44 | 52.24485 | -0.84426 | 31414 ft | 477 kts | 313° |
| 2026-04-18 05:44 | 52.27196 | -0.87618 | 30461 ft | 484 kts | 319° |
| 2026-04-18 05:44 | 52.30028 | -0.90599 | 29416 ft | 485 kts | 320° |
| 2026-04-18 05:45 | 52.32891 | -0.93489 | 28539 ft | 481 kts | 321° |
| 2026-04-18 05:45 | 52.35735 | -0.96294 | 27920 ft | 473 kts | 322° |
| 2026-04-18 05:45 | 52.38541 | -0.99041 | 27292 ft | 466 kts | 322° |
| 2026-04-18 05:45 | 52.41304 | -1.01756 | 26652 ft | 460 kts | 322° |
| 2026-04-18 05:46 | 52.44017 | -1.04439 | 26023 ft | 454 kts | 321° |
| 2026-04-18 05:46 | 52.46662 | -1.07073 | 25430 ft | 448 kts | 321° |
| 2026-04-18 05:46 | 52.49303 | -1.09716 | 24837 ft | 443 kts | 321° |
| 2026-04-18 05:46 | 52.51924 | -1.12342 | 24246 ft | 438 kts | 321° |
| 2026-04-18 05:47 | 52.54502 | -1.14939 | 23643 ft | 433 kts | 321° |
| 2026-04-18 05:47 | 52.57062 | -1.17525 | 23009 ft | 428 kts | 321° |
| 2026-04-18 05:47 | 52.59578 | -1.20071 | 22421 ft | 422 kts | 321° |
| 2026-04-18 05:47 | 52.62059 | -1.22585 | 21855 ft | 417 kts | 321° |
| 2026-04-18 05:48 | 52.64526 | -1.25090 | 21287 ft | 416 kts | 321° |
| 2026-04-18 05:48 | 52.66959 | -1.27562 | 20704 ft | 415 kts | 321° |
| 2026-04-18 05:48 | 52.69409 | -1.30049 | 20138 ft | 412 kts | 321° |
| 2026-04-18 05:48 | 52.71850 | -1.32528 | 19624 ft | 417 kts | 321° |
| 2026-04-18 05:49 | 52.74350 | -1.35086 | 19180 ft | 427 kts | 321° |
| 2026-04-18 05:49 | 52.76880 | -1.37671 | 18695 ft | 428 kts | 321° |
| 2026-04-18 05:49 | 52.79402 | -1.40243 | 18069 ft | 425 kts | 322° |
| 2026-04-18 05:49 | 52.81898 | -1.42790 | 17536 ft | 421 kts | 322° |
| 2026-04-18 05:50 | 52.84384 | -1.45332 | 17039 ft | 418 kts | 322° |
| 2026-04-18 05:50 | 52.86855 | -1.47865 | 16552 ft | 415 kts | 322° |
| 2026-04-18 05:50 | 52.89266 | -1.50339 | 16062 ft | 412 kts | 322° |
| 2026-04-18 05:50 | 52.91693 | -1.52833 | 15570 ft | 409 kts | 322° |
| 2026-04-18 05:51 | 52.94105 | -1.55315 | 15088 ft | 406 kts | 322° |
| 2026-04-18 05:51 | 52.96494 | -1.57780 | 14604 ft | 404 kts | 322° |
| 2026-04-18 05:51 | 52.98868 | -1.60232 | 14134 ft | 401 kts | 322° |
| 2026-04-18 05:51 | 53.01230 | -1.62673 | 13631 ft | 398 kts | 322° |
| 2026-04-18 05:52 | 53.03569 | -1.65102 | 13145 ft | 394 kts | 322° |
| 2026-04-18 05:52 | 53.05733 | -1.67800 | 12697 ft | 383 kts | 311° |
| 2026-04-18 05:52 | 53.07500 | -1.70947 | 12428 ft | 363 kts | 306° |
| 2026-04-18 05:52 | 53.09109 | -1.74060 | 12159 ft | 347 kts | 304° |
| 2026-04-18 05:53 | 53.10616 | -1.77015 | 11881 ft | 333 kts | 304° |
| 2026-04-18 05:53 | 53.12092 | -1.79907 | 11614 ft | 321 kts | 304° |
| 2026-04-18 05:53 | 53.13504 | -1.82675 | 11382 ft | 309 kts | 304° |
| 2026-04-18 05:53 | 53.14867 | -1.85352 | 11161 ft | 297 kts | 304° |
| 2026-04-18 05:54 | 53.16180 | -1.87928 | 10939 ft | 286 kts | 304° |
| 2026-04-18 05:54 | 53.17446 | -1.90410 | 10770 ft | 275 kts | 304° |
| 2026-04-18 05:54 | 53.18664 | -1.92794 | 10565 ft | 266 kts | 304° |
| 2026-04-18 05:54 | 53.19834 | -1.95090 | 10261 ft | 261 kts | 305° |
| 2026-04-18 05:55 | 53.21004 | -1.97385 | 9947 ft | 258 kts | 305° |
| 2026-04-18 05:55 | 53.22162 | -1.99655 | 9586 ft | 255 kts | 305° |
| 2026-04-18 05:55 | 53.23447 | -2.01701 | 9211 ft | 259 kts | 320° |
| 2026-04-18 05:55 | 53.25138 | -2.02771 | 8779 ft | 264 kts | 347° |
| 2026-04-18 05:56 | 53.26987 | -2.02770 | 8065 ft | 266 kts | 359° |
| 2026-04-18 05:56 | 53.28814 | -2.02499 | 7372 ft | 263 kts | 360° |
| 2026-04-18 05:56 | 53.30607 | -2.02224 | 6878 ft | 253 kts | 359° |
| 2026-04-18 05:56 | 53.32356 | -2.01976 | 6533 ft | 252 kts | 359° |
| 2026-04-18 05:57 | 53.35827 | -2.01500 | 5923 ft | 249 kts | 360° |
| 2026-04-18 05:57 | 53.37533 | -2.01253 | 5629 ft | 248 kts | 360° |
| 2026-04-18 05:57 | 53.39250 | -2.01014 | 5349 ft | 247 kts | 359° |
| 2026-04-18 05:58 | 53.40959 | -2.00790 | 5071 ft | 249 kts | 359° |
| 2026-04-18 05:58 | 53.42665 | -2.00575 | 4934 ft | 240 kts | 359° |
| 2026-04-18 05:58 | 53.44297 | -2.00374 | 4793 ft | 231 kts | 359° |
| 2026-04-18 05:58 | 53.45876 | -2.00175 | 4602 ft | 223 kts | 358° |
| 2026-04-18 05:59 | 53.47389 | -1.99983 | 4444 ft | 215 kts | 358° |
| 2026-04-18 05:59 | 53.48853 | -1.99879 | 4296 ft | 204 kts | 349° |
| 2026-04-18 05:59 | 53.50112 | -2.00579 | 4155 ft | 183 kts | 319° |
| 2026-04-18 05:59 | 53.50850 | -2.02123 | 3964 ft | 162 kts | 289° |
| 2026-04-18 06:00 | 53.51004 | -2.03833 | 3827 ft | 143 kts | 266° |
| 2026-04-18 06:00 | 53.50727 | -2.05358 | 3642 ft | 133 kts | 245° |
| 2026-04-18 06:00 | 53.50131 | -2.06500 | 3553 ft | 128 kts | 225° |
| 2026-04-18 06:00 | 53.49348 | -2.07131 | 3468 ft | 124 kts | 205° |
| 2026-04-18 06:01 | 53.48476 | -2.07215 | 3476 ft | 130 kts | 184° |
| 2026-04-18 06:01 | 53.47589 | -2.06690 | 3492 ft | 142 kts | 158° |
| 2026-04-18 06:01 | 53.46861 | -2.05503 | 3482 ft | 149 kts | 132° |
| 2026-04-18 06:01 | 53.46063 | -2.04579 | 3446 ft | 135 kts | 182° |
| 2026-04-18 06:02 | 53.45329 | -2.05170 | 3468 ft | 114 kts | 240° |
| 2026-04-18 06:02 | 53.44934 | -2.06358 | 3338 ft | 125 kts | 247° |
| 2026-04-18 06:02 | 53.44480 | -2.07786 | 3128 ft | 147 kts | 245° |
| 2026-04-18 06:02 | 53.43958 | -2.09254 | 2879 ft | 148 kts | 242° |
| 2026-04-18 06:03 | 53.43365 | -2.10760 | 2671 ft | 162 kts | 239° |
| 2026-04-18 06:03 | 53.42689 | -2.12306 | 2432 ft | 167 kts | 237° |
| 2026-04-18 06:03 | 53.41969 | -2.13851 | 2193 ft | 168 kts | 236° |
| 2026-04-18 06:03 | 53.41249 | -2.15380 | 1952 ft | 163 kts | 235° |
| 2026-04-18 06:04 | 53.40569 | -2.16773 | 1734 ft | 149 kts | 234° |
| 2026-04-18 06:04 | 53.39925 | -2.18103 | 1523 ft | 144 kts | 235° |
| 2026-04-18 06:04 | 53.39326 | -2.19350 | 1329 ft | 131 kts | 234° |
| 2026-04-18 06:04 | 53.38777 | -2.20483 | 1128 ft | 120 kts | 233° |
| 2026-04-18 06:05 | 53.38258 | -2.21555 | 970 ft | 118 kts | 232° |
| 2026-04-18 06:05 | 53.37740 | -2.22625 | 792 ft | 119 kts | 231° |
| 2026-04-18 06:05 | 53.37222 | -2.23680 | 630 ft | 119 kts | 230° |
| 2026-04-18 06:05 | 53.36701 | -2.24751 | 450 ft | 118 kts | 231° |
| 2026-04-18 06:06 | 53.36181 | -2.25821 | 309 ft | 118 kts | 230° |
| 2026-04-18 06:06 | 53.35684 | -2.26854 | 268 ft | 102 kts | 231° |
| 2026-04-18 06:06 | 53.35384 | -2.27481 | 258 ft | 43 kts | 232° |
| 2026-04-18 06:06 | 53.35257 | -2.27891 | 246 ft | 36 kts | 256° |
| 2026-04-18 06:07 | 53.35229 | -2.28134 | 243 ft | 14 kts | 260° |
| 2026-04-18 06:07 | 53.35258 | -2.28201 | 242 ft | 7 kts | 338° |
| 2026-04-18 06:07 | 53.35314 | -2.28197 | 244 ft | 10 kts | 12° |
| 2026-04-18 06:07 | 53.35395 | -2.28169 | 246 ft | 14 kts | 11° |
| 2026-04-18 06:08 | 53.35487 | -2.28125 | 249 ft | 14 kts | 23° |
| 2026-04-18 06:08 | 53.35555 | -2.28039 | 252 ft | 0 kts | 46° |
| 2026-04-18 06:10 | 53.35562 | -2.28027 | 252 ft | 5 kts | 46° |
| 2026-04-18 06:10 | 53.35599 | -2.27955 | 254 ft | 10 kts | 50° |
| 2026-04-18 06:11 | 53.35648 | -2.27850 | 257 ft | 13 kts | 52° |
| 2026-04-18 06:11 | 53.35710 | -2.27721 | 261 ft | 15 kts | 57° |
| 2026-04-18 06:11 | 53.35776 | -2.27572 | 261 ft | 11 kts | 52° |
| 2026-04-18 06:11 | 53.35786 | -2.27549 | 261 ft | 4 kts | 52° |
| 2026-04-18 06:12 | 53.35795 | -2.27531 | 261 ft | 0 kts | 51° |